Time;durP1;ratioP1;P1;durP2;ratioP2;P2;SDS_P1;SDS_P2;PMS_P1;PMS_P2;Temp;Humidity;BMP_temperature;BMP_pressure;BME280_temperature;BME280_humidity;BME280_pressure;Samples;Min_cycle;Max_cycle;Signal;HPM_P1;HPM_P2
2021/08/19 00:02:08;;;;;;;1.42;1.33;;;17.00;99.90;;;;;;4959113;28;20470;-77
2021/08/19 00:04:33;;;;;;;1.23;1.23;;;17.00;99.90;;;;;;4962956;28;20446;-76
2021/08/19 00:06:59;;;;;;;1.50;1.40;;;17.00;99.90;;;;;;4964042;28;20389;-76
2021/08/19 00:09:24;;;;;;;1.30;1.20;;;17.00;99.90;;;;;;4977645;28;21031;-75
2021/08/19 00:11:50;;;;;;;1.33;1.23;;;17.00;99.90;;;;;;4996058;28;20785;-76
2021/08/19 00:14:16;;;;;;;1.60;1.50;;;17.10;99.90;;;;;;5005930;28;20443;-76
2021/08/19 00:16:41;;;;;;;1.35;1.25;;;17.10;99.90;;;;;;4979878;28;20509;-76
2021/08/19 00:19:07;;;;;;;1.63;1.53;;;17.10;99.90;;;;;;4985453;28;20458;-75
2021/08/19 00:21:33;;;;;;;1.40;1.30;;;17.20;99.90;;;;;;4958612;28;20448;-75
2021/08/19 00:23:58;;;;;;;1.60;1.50;;;17.20;99.90;;;;;;4969812;28;20459;-75
2021/08/19 00:26:24;;;;;;;1.70;1.60;;;17.20;99.90;;;;;;4980656;28;20894;-76
2021/08/19 00:28:50;;;;;;;2.07;1.60;;;17.20;99.90;;;;;;4979468;28;20472;-77
2021/08/19 00:31:16;;;;;;;1.77;1.67;;;17.20;99.90;;;;;;4980294;28;20784;-76
2021/08/19 00:33:43;;;;;;;1.77;1.67;;;17.30;99.90;;;;;;4981406;28;20405;-75
2021/08/19 00:36:09;;;;;;;1.85;1.75;;;17.30;99.90;;;;;;5003887;28;20404;-75
2021/08/19 00:38:34;;;;;;;1.57;1.47;;;17.40;99.90;;;;;;4956592;28;20397;-75
2021/08/19 00:41:00;;;;;;;7.00;1.42;;;17.40;99.90;;;;;;4980317;28;20397;-75
2021/08/19 00:43:25;;;;;;;2.03;1.93;;;17.40;99.90;;;;;;4960372;28;20397;-75
2021/08/19 00:45:51;;;;;;;1.58;1.48;;;17.40;99.90;;;;;;4961687;28;20409;-76
2021/08/19 00:48:17;;;;;;;1.70;1.60;;;17.40;99.90;;;;;;4995956;28;20401;-76
2021/08/19 00:50:43;;;;;;;1.43;1.33;;;17.40;99.90;;;;;;4965387;28;20826;-78
2021/08/19 00:53:08;;;;;;;1.90;1.80;;;17.50;99.90;;;;;;4978971;28;20409;-75
2021/08/19 00:55:34;;;;;;;1.30;1.20;;;17.50;99.90;;;;;;4984099;28;20393;-74
2021/08/19 00:58:00;;;;;;;1.60;1.50;;;17.50;99.90;;;;;;4979727;28;20960;-76
2021/08/19 01:00:25;;;;;;;1.63;1.53;;;17.50;99.90;;;;;;4956974;28;20743;-75
2021/08/19 01:02:54;;;;;;;1.67;1.57;;;17.50;99.90;;;;;;4979524;28;20413;-75
2021/08/19 01:05:22;;;;;;;1.70;1.60;;;17.50;99.90;;;;;;4949039;28;20389;-76
2021/08/19 01:07:47;;;;;;;1.35;1.27;;;17.50;99.90;;;;;;4963431;28;20484;-76
2021/08/19 01:10:13;;;;;;;1.40;1.30;;;17.50;99.90;;;;;;4973742;28;20495;-75
2021/08/19 01:12:43;;;;;;;1.63;1.52;;;17.50;99.90;;;;;;4959966;28;20421;-75
2021/08/19 01:15:10;;;;;;;1.50;1.40;;;17.50;99.90;;;;;;4959444;28;20388;-75
2021/08/19 01:17:36;;;;;;;1.67;1.58;;;17.50;99.90;;;;;;4946691;28;20411;-76
2021/08/19 01:20:01;;;;;;;1.30;1.20;;;17.50;99.90;;;;;;4959729;28;21033;-75
2021/08/19 01:22:27;;;;;;;1.20;1.20;;;17.50;99.90;;;;;;4987260;28;20404;-75
2021/08/19 01:24:53;;;;;;;1.80;1.70;;;17.50;99.90;;;;;;4991849;28;20427;-76
2021/08/19 01:27:19;;;;;;;2.30;1.60;;;17.50;99.90;;;;;;4961119;28;20409;-75
2021/08/19 01:29:46;;;;;;;1.60;1.50;;;17.60;99.90;;;;;;4962355;28;20742;-75
2021/08/19 01:32:11;;;;;;;1.50;1.40;;;17.50;99.90;;;;;;4979086;28;20404;-76
2021/08/19 01:34:38;;;;;;;1.40;1.30;;;17.60;99.90;;;;;;4995464;28;20398;-76
2021/08/19 01:37:04;;;;;;;1.70;1.60;;;17.60;99.90;;;;;;4978424;28;20469;-76
2021/08/19 01:39:30;;;;;;;1.30;1.20;;;17.60;99.90;;;;;;4958662;28;20400;-75
2021/08/19 01:41:56;;;;;;;1.35;1.33;;;17.60;99.90;;;;;;4974615;28;20403;-75
2021/08/19 01:44:21;;;;;;;1.50;1.40;;;17.60;99.90;;;;;;5005612;28;20393;-76
2021/08/19 01:46:55;;;;;;;1.45;1.35;;;17.60;99.90;;;;;;4960985;28;20609;-77
2021/08/19 01:49:20;;;;;;;1.42;1.33;;;17.60;99.90;;;;;;4958474;28;20393;-74
2021/08/19 01:51:47;;;;;;;2.60;1.30;;;17.60;99.90;;;;;;4980695;28;20782;-76
2021/08/19 01:54:13;;;;;;;1.50;1.40;;;17.60;99.90;;;;;;4968517;28;20421;-76
2021/08/19 01:56:39;;;;;;;1.40;1.30;;;17.60;99.90;;;;;;4980287;28;20396;-76
2021/08/19 01:59:05;;;;;;;1.52;1.42;;;17.60;99.90;;;;;;4979172;28;20472;-75
2021/08/19 02:01:30;;;;;;;1.50;1.40;;;17.70;99.90;;;;;;4958784;28;20499;-76
2021/08/19 02:03:56;;;;;;;1.67;1.57;;;17.70;99.90;;;;;;4979720;28;20408;-74
2021/08/19 02:06:22;;;;;;;1.30;1.30;;;17.70;99.90;;;;;;4978854;28;20864;-75
2021/08/19 02:08:47;;;;;;;1.50;1.40;;;17.60;99.90;;;;;;4962175;28;20475;-76
2021/08/19 02:11:13;;;;;;;1.20;1.20;;;17.60;99.90;;;;;;4955942;28;20420;-76
2021/08/19 02:13:39;;;;;;;1.30;1.20;;;17.60;99.90;;;;;;4993263;28;20960;-75
2021/08/19 02:16:05;;;;;;;1.25;1.20;;;17.60;99.90;;;;;;4976182;28;20389;-75
2021/08/19 02:18:30;;;;;;;1.50;1.40;;;17.60;99.90;;;;;;4976770;28;20400;-76
2021/08/19 02:20:56;;;;;;;1.30;1.30;;;17.60;99.90;;;;;;4978858;28;20761;-75
2021/08/19 02:23:22;;;;;;;1.55;1.45;;;17.60;99.90;;;;;;4961286;28;20473;-76
2021/08/19 02:25:47;;;;;;;1.57;1.47;;;17.60;99.90;;;;;;4963820;28;20467;-74
2021/08/19 02:28:13;;;;;;;1.30;1.25;;;17.60;99.90;;;;;;4982453;28;20882;-74
2021/08/19 02:30:39;;;;;;;1.27;1.27;;;17.60;99.90;;;;;;4978615;28;20423;-75
2021/08/19 02:33:04;;;;;;;1.30;1.30;;;17.60;99.90;;;;;;4970860;28;20412;-75
2021/08/19 02:35:30;;;;;;;1.50;1.40;;;17.60;99.90;;;;;;4972121;28;20389;-75
2021/08/19 02:37:59;;;;;;;1.38;1.27;;;17.60;99.90;;;;;;4967131;28;20406;-77
2021/08/19 02:40:25;;;;;;;1.73;1.50;;;17.60;99.90;;;;;;4960409;28;20400;-75
2021/08/19 02:42:51;;;;;;;2.03;1.60;;;17.60;99.90;;;;;;4961031;28;20447;-74
2021/08/19 02:45:16;;;;;;;1.55;1.45;;;17.60;99.90;;;;;;4962092;28;20400;-75
2021/08/19 02:47:42;;;;;;;1.60;1.50;;;17.60;99.90;;;;;;4961969;28;20389;-75
2021/08/19 02:50:08;;;;;;;1.40;1.30;;;17.50;99.90;;;;;;4975209;28;20403;-75
2021/08/19 02:52:34;;;;;;;1.50;1.40;;;17.50;99.90;;;;;;4959345;28;20421;-75
2021/08/19 02:55:00;;;;;;;1.40;1.30;;;17.50;99.90;;;;;;4997220;28;20417;-76
2021/08/19 02:57:25;;;;;;;1.35;1.27;;;17.50;99.90;;;;;;4978315;28;20990;-76
2021/08/19 02:59:51;;;;;;;1.37;1.30;;;17.50;99.90;;;;;;4975316;28;20414;-76
2021/08/19 03:02:17;;;;;;;1.10;1.10;;;17.40;99.90;;;;;;4961325;28;20935;-75
2021/08/19 03:04:42;;;;;;;1.48;1.38;;;17.50;99.90;;;;;;4987532;28;20470;-75
2021/08/19 03:07:09;;;;;;;1.47;1.37;;;17.40;99.90;;;;;;4972827;28;20509;-76
2021/08/19 03:09:35;;;;;;;1.65;1.55;;;17.40;99.90;;;;;;4978147;28;20480;-75
2021/08/19 03:12:01;;;;;;;1.60;1.50;;;17.40;99.90;;;;;;4956262;28;20488;-75
2021/08/19 03:14:27;;;;;;;1.48;1.38;;;17.40;99.90;;;;;;4975783;28;20734;-74
2021/08/19 03:16:53;;;;;;;1.52;1.42;;;17.40;99.90;;;;;;4973244;28;20451;-74
2021/08/19 03:19:18;;;;;;;1.57;1.47;;;17.30;99.90;;;;;;4973434;28;20730;-75
2021/08/19 03:21:44;;;;;;;1.40;1.30;;;17.30;99.90;;;;;;4965422;28;20398;-76
2021/08/19 03:24:10;;;;;;;1.40;1.30;;;17.30;99.90;;;;;;4991265;28;20452;-75
2021/08/19 03:26:35;;;;;;;1.70;1.60;;;17.40;99.90;;;;;;4969971;28;20421;-76
2021/08/19 03:29:01;;;;;;;1.48;1.38;;;17.30;99.90;;;;;;4959613;28;20406;-75
2021/08/19 03:31:27;;;;;;;1.40;1.30;;;17.30;99.90;;;;;;4977902;28;20514;-76
2021/08/19 03:33:53;;;;;;;1.40;1.30;;;17.30;99.90;;;;;;4981786;28;20499;-76
2021/08/19 03:36:18;;;;;;;1.48;1.38;;;17.30;99.90;;;;;;4958982;28;20455;-78
2021/08/19 03:38:44;;;;;;;1.70;1.60;;;17.30;99.90;;;;;;4975736;28;20410;-76
2021/08/19 03:41:10;;;;;;;1.40;1.30;;;17.20;99.90;;;;;;4984247;28;20924;-77
2021/08/19 03:43:37;;;;;;;1.83;1.70;;;17.20;99.90;;;;;;4970497;28;20417;-75
2021/08/19 03:46:03;;;;;;;1.70;1.60;;;17.20;99.90;;;;;;4995606;28;20411;-75
2021/08/19 03:48:28;;;;;;;2.30;1.60;;;17.20;99.90;;;;;;4978365;28;20409;-74
2021/08/19 03:50:54;;;;;;;1.80;1.70;;;17.20;99.90;;;;;;4979552;28;20473;-76
2021/08/19 03:53:20;;;;;;;1.42;1.33;;;17.20;99.90;;;;;;4972182;28;20468;-75
2021/08/19 03:55:45;;;;;;;1.55;1.45;;;17.20;99.90;;;;;;4975109;28;21258;-75
2021/08/19 03:58:11;;;;;;;1.30;1.30;;;17.20;99.90;;;;;;4978612;28;20468;-75
2021/08/19 04:00:37;;;;;;;1.50;1.40;;;17.20;99.90;;;;;;4961427;28;20415;-75
2021/08/19 04:03:03;;;;;;;1.33;1.30;;;17.20;99.90;;;;;;4972077;28;20406;-76
2021/08/19 04:05:28;;;;;;;1.83;1.70;;;17.20;99.90;;;;;;4988045;28;20451;-75
2021/08/19 04:07:54;;;;;;;1.17;1.17;;;17.10;99.90;;;;;;4963205;28;20397;-76
2021/08/19 04:10:20;;;;;;;1.70;1.60;;;17.10;99.90;;;;;;4978646;28;20407;-76
2021/08/19 04:12:46;;;;;;;2.00;1.33;;;17.10;99.90;;;;;;4952659;28;20785;-76
2021/08/19 04:15:11;;;;;;;2.10;1.40;;;17.10;99.90;;;;;;4969821;28;20399;-75
2021/08/19 04:17:38;;;;;;;4.07;3.67;;;17.10;99.90;;;;;;4980979;28;20446;-75
2021/08/19 04:20:04;;;;;;;2.60;2.40;;;17.10;99.90;;;;;;4977478;28;20389;-76
2021/08/19 04:22:30;;;;;;;2.50;2.30;;;17.10;99.90;;;;;;4980681;28;20405;-78
2021/08/19 04:24:56;;;;;;;1.60;1.50;;;17.00;99.90;;;;;;4961423;28;20388;-77
2021/08/19 04:27:21;;;;;;;1.60;1.50;;;17.00;99.90;;;;;;4982004;28;20458;-75
2021/08/19 04:29:47;;;;;;;1.70;1.60;;;17.00;99.90;;;;;;4965479;28;20401;-76
2021/08/19 04:32:13;;;;;;;1.58;1.48;;;17.00;99.90;;;;;;4976351;28;20400;-76
2021/08/19 04:34:38;;;;;;;1.80;1.70;;;17.00;99.90;;;;;;4966178;28;20411;-77
2021/08/19 04:37:04;;;;;;;2.00;1.80;;;17.00;99.90;;;;;;4986084;28;20400;-76
2021/08/19 04:39:30;;;;;;;2.00;1.77;;;17.00;99.90;;;;;;4961651;28;20397;-75
2021/08/19 04:41:55;;;;;;;1.70;1.60;;;17.00;99.90;;;;;;4960361;28;20401;-75
2021/08/19 04:44:21;;;;;;;2.38;2.17;;;17.00;99.90;;;;;;4979364;28;20396;-75
2021/08/19 04:46:47;;;;;;;1.80;1.70;;;17.00;99.90;;;;;;4997389;28;20400;-75
2021/08/19 04:49:12;;;;;;;1.67;1.58;;;17.10;99.90;;;;;;4956241;28;20398;-75
2021/08/19 04:51:38;;;;;;;1.88;1.77;;;17.10;99.90;;;;;;4974858;28;21066;-75
2021/08/19 04:54:04;;;;;;;2.30;2.17;;;17.10;99.90;;;;;;4979704;28;20420;-75
2021/08/19 04:56:36;;;;;;;1.80;1.70;;;17.10;99.90;;;;;;4975466;28;20400;-75
2021/08/19 04:59:04;;;;;;;1.73;1.63;;;17.10;99.90;;;;;;4976058;28;20402;-76
2021/08/19 05:01:30;;;;;;;1.83;1.73;;;17.20;99.90;;;;;;4961488;28;20778;-76
2021/08/19 05:03:58;;;;;;;1.97;1.80;;;17.20;99.90;;;;;;4953214;28;20404;-75
2021/08/19 05:06:27;;;;;;;2.00;1.90;;;17.20;99.90;;;;;;4990240;28;20397;-75
2021/08/19 05:08:54;;;;;;;1.80;1.70;;;17.20;99.90;;;;;;4963707;28;20397;-76
2021/08/19 05:11:23;;;;;;;2.40;2.00;;;17.20;99.90;;;;;;5003039;28;20401;-75
2021/08/19 05:13:49;;;;;;;1.92;1.83;;;17.30;99.90;;;;;;4964355;28;20816;-75
2021/08/19 05:16:15;;;;;;;1.70;1.60;;;17.30;99.90;;;;;;4962644;28;20454;-74
2021/08/19 05:18:40;;;;;;;1.87;1.77;;;17.30;99.90;;;;;;4962611;28;20405;-76
2021/08/19 05:21:07;;;;;;;3.00;2.22;;;17.40;99.90;;;;;;4961489;28;20891;-76
2021/08/19 05:23:33;;;;;;;2.10;1.90;;;17.40;99.90;;;;;;4963671;28;20397;-75
2021/08/19 05:25:58;;;;;;;1.92;1.83;;;17.50;99.90;;;;;;4978885;28;20401;-75
2021/08/19 05:28:24;;;;;;;2.10;1.97;;;17.50;99.90;;;;;;4960764;28;20396;-75
2021/08/19 05:30:51;;;;;;;1.88;1.77;;;17.50;99.90;;;;;;4982080;28;20400;-76
2021/08/19 05:33:17;;;;;;;2.13;1.92;;;17.60;99.90;;;;;;4961815;28;20861;-77
2021/08/19 05:35:43;;;;;;;1.95;1.85;;;17.60;99.90;;;;;;4963003;28;20402;-76
2021/08/19 05:38:08;;;;;;;2.20;2.10;;;17.70;99.90;;;;;;4960644;28;20440;-75
2021/08/19 05:40:34;;;;;;;2.40;2.20;;;17.70;99.90;;;;;;4960602;28;20401;-75
2021/08/19 05:42:59;;;;;;;2.53;2.33;;;17.70;99.90;;;;;;4963323;28;20411;-75
2021/08/19 05:45:25;;;;;;;2.10;2.00;;;17.80;99.90;;;;;;4958922;28;20917;-75
2021/08/19 05:47:51;;;;;;;2.20;1.88;;;17.80;99.90;;;;;;4977036;28;20831;-74
2021/08/19 05:50:16;;;;;;;2.25;1.90;;;17.80;99.90;;;;;;4962962;28;20402;-76
2021/08/19 05:52:43;;;;;;;2.40;2.20;;;17.90;99.90;;;;;;4980141;28;20405;-75
2021/08/19 05:55:10;;;;;;;2.05;1.95;;;18.00;99.90;;;;;;4967399;28;20420;-77
2021/08/19 05:57:35;;;;;;;2.10;2.00;;;18.00;99.90;;;;;;4991401;28;20643;-78
2021/08/19 06:00:02;;;;;;;2.10;1.90;;;18.10;99.90;;;;;;4988499;28;20388;-75
2021/08/19 06:02:30;;;;;;;2.08;1.98;;;18.10;99.90;;;;;;4994126;28;20480;-75
2021/08/19 06:04:56;;;;;;;2.22;2.03;;;18.20;99.90;;;;;;4968076;28;21211;-75
2021/08/19 06:07:21;;;;;;;2.00;1.90;;;18.30;99.90;;;;;;4976963;28;20629;-75
2021/08/19 06:09:47;;;;;;;2.13;1.93;;;18.30;99.90;;;;;;4952098;28;20406;-75
2021/08/19 06:12:13;;;;;;;2.45;2.13;;;18.30;99.90;;;;;;4976612;28;20397;-75
2021/08/19 06:14:39;;;;;;;2.47;2.28;;;18.30;99.90;;;;;;4973107;28;20424;-75
2021/08/19 06:17:04;;;;;;;2.30;2.13;;;18.30;99.90;;;;;;4955860;28;20944;-76
2021/08/19 06:19:30;;;;;;;2.47;2.27;;;18.30;99.90;;;;;;4959065;28;20408;-76
2021/08/19 06:21:56;;;;;;;2.50;2.20;;;18.30;99.90;;;;;;4978842;28;20391;-75
2021/08/19 06:24:21;;;;;;;2.50;2.30;;;18.30;99.90;;;;;;4971053;28;20464;-75
2021/08/19 06:26:47;;;;;;;2.63;2.40;;;18.30;99.90;;;;;;4976178;28;20901;-75
2021/08/19 06:29:13;;;;;;;2.50;2.30;;;18.40;99.90;;;;;;4977580;28;20439;-75
2021/08/19 06:31:38;;;;;;;2.73;2.27;;;18.30;99.90;;;;;;4984869;28;20409;-77
2021/08/19 06:34:04;;;;;;;2.25;2.10;;;18.30;99.90;;;;;;4977179;28;20404;-75
2021/08/19 06:36:30;;;;;;;2.47;2.27;;;18.30;99.90;;;;;;4989174;28;20396;-75
2021/08/19 06:38:55;;;;;;;3.92;2.25;;;18.30;99.90;;;;;;4966316;28;20407;-76
2021/08/19 06:41:21;;;;;;;1.90;1.80;;;18.30;99.90;;;;;;4972587;28;20393;-77
2021/08/19 06:43:47;;;;;;;2.00;1.90;;;18.30;99.90;;;;;;4979816;28;20499;-75
2021/08/19 06:46:13;;;;;;;2.20;2.00;;;18.40;99.90;;;;;;4956648;28;20806;-76
2021/08/19 06:48:39;;;;;;;3.05;2.08;;;18.40;99.90;;;;;;4988102;28;20467;-75
2021/08/19 06:51:04;;;;;;;2.27;2.07;;;18.50;99.90;;;;;;4957812;28;20393;-76
2021/08/19 06:53:30;;;;;;;2.50;2.00;;;18.50;99.90;;;;;;4959838;28;20407;-76
2021/08/19 06:55:56;;;;;;;2.50;2.25;;;18.50;99.90;;;;;;4961256;28;20424;-75
2021/08/19 06:58:21;;;;;;;2.10;1.90;;;18.60;99.90;;;;;;4973708;28;20385;-75
2021/08/19 07:00:47;;;;;;;2.67;2.10;;;18.70;99.90;;;;;;4980004;28;20474;-75
2021/08/19 07:03:15;;;;;;;2.30;2.10;;;18.70;99.90;;;;;;4985320;28;20407;-75
2021/08/19 07:05:44;;;;;;;1.95;1.85;;;18.80;99.90;;;;;;4944564;28;20401;-75
2021/08/19 07:08:10;;;;;;;2.20;2.00;;;18.80;99.90;;;;;;4957586;28;20401;-76
2021/08/19 07:10:36;;;;;;;2.50;2.30;;;18.80;99.90;;;;;;4992490;28;20407;-76
2021/08/19 07:13:02;;;;;;;2.30;2.10;;;18.80;99.90;;;;;;4975322;28;20511;-76
2021/08/19 07:15:28;;;;;;;2.40;2.20;;;18.90;99.90;;;;;;4963114;28;20504;-74
2021/08/19 07:17:54;;;;;;;2.27;2.17;;;19.00;99.90;;;;;;4973204;28;20389;-75
2021/08/19 07:20:19;;;;;;;2.00;1.90;;;19.10;99.90;;;;;;4976374;28;20401;-75
2021/08/19 07:22:45;;;;;;;1.97;1.87;;;19.10;99.90;;;;;;4960801;28;20400;-76
2021/08/19 07:25:14;;;;;;;2.10;1.90;;;19.20;99.90;;;;;;4965957;28;20396;-75
2021/08/19 07:27:40;;;;;;;2.20;2.00;;;19.20;99.90;;;;;;4957714;28;20412;-76
2021/08/19 07:30:06;;;;;;;1.90;1.80;;;19.20;99.90;;;;;;4958505;28;20494;-75
2021/08/19 07:32:32;;;;;;;2.50;2.00;;;19.20;99.90;;;;;;4971776;28;20401;-75
2021/08/19 07:34:58;;;;;;;2.07;1.83;;;19.30;99.90;;;;;;4958762;28;20494;-74
2021/08/19 07:37:23;;;;;;;1.80;1.70;;;19.30;99.90;;;;;;4959955;28;20454;-74
2021/08/19 07:39:49;;;;;;;1.97;1.87;;;19.20;99.90;;;;;;4956898;28;20399;-76
2021/08/19 07:42:15;;;;;;;1.93;1.83;;;19.20;99.90;;;;;;4964746;28;20393;-75
2021/08/19 07:44:40;;;;;;;2.03;1.92;;;19.20;99.90;;;;;;4976978;28;20417;-75
2021/08/19 07:47:06;;;;;;;1.57;1.47;;;19.20;99.90;;;;;;4966940;28;20818;-76
2021/08/19 07:49:32;;;;;;;1.93;1.83;;;19.20;99.90;;;;;;4962079;28;20397;-75
2021/08/19 07:51:57;;;;;;;2.00;1.88;;;19.30;99.90;;;;;;4957902;28;20420;-75
2021/08/19 07:54:23;;;;;;;1.93;1.83;;;19.30;99.90;;;;;;4975976;28;20416;-75
2021/08/19 07:56:49;;;;;;;2.05;1.75;;;19.20;99.90;;;;;;4980949;28;20889;-76
2021/08/19 07:59:14;;;;;;;2.42;2.22;;;19.20;99.90;;;;;;4955504;28;20395;-75
2021/08/19 08:01:40;;;;;;;2.20;2.00;;;19.20;99.90;;;;;;4953367;28;20405;-76
2021/08/19 08:04:09;;;;;;;2.15;2.05;;;19.20;99.90;;;;;;4962939;28;20400;-75
2021/08/19 08:06:38;;;;;;;1.98;1.80;;;19.30;99.90;;;;;;4959736;28;20766;-75
2021/08/19 08:09:03;;;;;;;2.05;1.85;;;19.40;99.90;;;;;;4956736;28;20459;-75
2021/08/19 08:11:29;;;;;;;2.20;2.10;;;19.40;99.90;;;;;;4966920;28;20904;-75
2021/08/19 08:13:55;;;;;;;2.17;2.00;;;19.50;99.90;;;;;;4965615;28;20939;-75
2021/08/19 08:16:21;;;;;;;3.10;1.98;;;19.50;99.90;;;;;;4964432;28;20465;-75
2021/08/19 08:18:46;;;;;;;2.38;2.17;;;19.60;99.90;;;;;;4961756;28;20429;-76
2021/08/19 08:21:14;;;;;;;1.85;1.75;;;19.60;99.90;;;;;;4966946;28;20393;-76
2021/08/19 08:23:43;;;;;;;1.70;1.60;;;19.70;99.90;;;;;;4997794;28;20397;-76
2021/08/19 08:26:12;;;;;;;2.10;2.00;;;19.80;99.90;;;;;;4980264;28;20967;-75
2021/08/19 08:28:37;;;;;;;1.77;1.67;;;19.80;99.90;;;;;;4959743;28;20423;-76
2021/08/19 08:31:03;;;;;;;1.60;1.50;;;19.80;99.90;;;;;;4969133;28;20414;-76
2021/08/19 08:33:31;;;;;;;2.33;1.80;;;19.80;99.90;;;;;;4979961;28;20413;-75
2021/08/19 08:36:00;;;;;;;1.90;1.80;;;19.80;99.90;;;;;;4978369;28;20399;-76
2021/08/19 08:38:26;;;;;;;2.08;1.95;;;19.90;99.90;;;;;;4992781;28;20418;-75
2021/08/19 08:40:52;;;;;;;1.80;1.70;;;20.00;99.90;;;;;;4976641;28;20544;-75
2021/08/19 08:43:20;;;;;;;1.77;1.67;;;20.10;99.90;;;;;;4975949;28;20389;-74
2021/08/19 08:45:47;;;;;;;1.83;1.73;;;20.10;99.90;;;;;;4981732;28;20407;-75
2021/08/19 08:48:16;;;;;;;2.00;1.83;;;20.10;99.90;;;;;;4960678;28;21442;-76
2021/08/19 08:50:43;;;;;;;1.73;1.63;;;20.10;99.90;;;;;;4961182;28;20409;-77
2021/08/19 08:53:09;;;;;;;1.80;1.70;;;20.00;99.90;;;;;;4964718;28;20426;-74
2021/08/19 08:55:35;;;;;;;1.73;1.63;;;19.90;99.90;;;;;;4964988;28;20407;-75
2021/08/19 08:58:01;;;;;;;1.98;1.88;;;19.90;99.90;;;;;;4961477;28;20393;-75
2021/08/19 09:00:26;;;;;;;1.80;1.70;;;19.90;99.90;;;;;;4962479;28;20393;-75
2021/08/19 09:02:52;;;;;;;2.00;1.90;;;19.90;99.90;;;;;;4993589;28;20397;-75
2021/08/19 09:05:29;;;;;;;1.90;1.80;;;20.00;99.90;;;;;;4964107;28;20420;-75
2021/08/19 09:07:58;;;;;;;1.77;1.67;;;20.00;99.90;;;;;;4985693;28;20409;-75
2021/08/19 09:10:29;;;;;;;1.60;1.50;;;20.00;99.90;;;;;;4960554;28;20985;-75
2021/08/19 09:12:55;;;;;;;1.75;1.65;;;20.00;99.90;;;;;;4979417;28;20416;-76
2021/08/19 09:15:22;;;;;;;1.83;1.73;;;20.00;99.90;;;;;;4977689;28;20742;-77
2021/08/19 09:17:52;;;;;;;1.60;1.50;;;20.20;99.90;;;;;;4970390;28;20423;-75
2021/08/19 09:20:19;;;;;;;1.87;1.77;;;20.10;99.90;;;;;;4992132;28;20389;-75
2021/08/19 09:22:51;;;;;;;1.70;1.60;;;20.10;99.90;;;;;;4977506;28;20409;-75
2021/08/19 09:25:31;;;;;;;1.70;1.60;;;20.20;99.90;;;;;;4998937;28;21098;-75
2021/08/19 09:28:24;;;;;;;3.35;1.90;;;20.20;99.90;;;;;;4940220;28;20410;-75
2021/08/19 09:30:53;;;;;;;2.17;1.67;;;20.40;99.90;;;;;;4980671;28;20396;-75
2021/08/19 09:33:32;;;;;;;1.70;1.60;;;20.50;99.90;;;;;;4961663;28;20948;-75
2021/08/19 09:36:06;;;;;;;1.92;1.83;;;20.50;99.90;;;;;;4963631;28;20392;-75
2021/08/19 09:38:39;;;;;;;2.00;1.90;;;20.50;99.90;;;;;;4974548;28;20769;-76
2021/08/19 09:41:17;;;;;;;1.92;1.83;;;20.60;99.90;;;;;;5006460;28;20406;-75
2021/08/19 09:43:46;;;;;;;2.05;1.90;;;20.50;99.90;;;;;;4982610;28;20405;-76
2021/08/19 09:46:35;;;;;;;2.60;2.03;;;20.50;99.90;;;;;;4985156;28;20413;-76
2021/08/19 09:49:02;;;;;;;2.15;1.95;;;20.40;99.90;;;;;;4968504;28;20419;-75
2021/08/19 09:51:27;;;;;;;1.83;1.73;;;20.30;99.90;;;;;;4964238;28;20931;-75
2021/08/19 09:53:58;;;;;;;2.40;2.20;;;20.20;99.90;;;;;;4957350;28;20400;-74
2021/08/19 09:56:31;;;;;;;1.70;1.60;;;20.20;99.90;;;;;;4931180;28;20535;-75
2021/08/19 09:59:20;;;;;;;1.77;1.67;;;20.30;99.90;;;;;;4959685;28;21170;-75
2021/08/19 10:01:50;;;;;;;1.70;1.60;;;20.40;99.90;;;;;;4958595;28;20418;-75
2021/08/19 10:04:16;;;;;;;1.63;1.52;;;20.50;99.90;;;;;;4969538;28;20440;-76
2021/08/19 10:06:42;;;;;;;1.83;1.73;;;20.50;99.90;;;;;;4960936;28;20758;-76
2021/08/19 10:09:07;;;;;;;1.70;1.60;;;20.50;99.90;;;;;;4968233;28;20405;-75
2021/08/19 10:11:33;;;;;;;1.73;1.63;;;20.60;99.90;;;;;;4960412;28;20633;-76
2021/08/19 10:14:00;;;;;;;3.47;1.67;;;20.60;99.90;;;;;;4959180;28;20467;-75
2021/08/19 10:16:26;;;;;;;1.60;1.50;;;20.70;99.90;;;;;;4955193;28;20449;-76
2021/08/19 10:18:52;;;;;;;1.60;1.50;;;20.80;99.90;;;;;;4973192;28;20404;-75
2021/08/19 10:21:17;;;;;;;1.90;1.80;;;20.80;99.90;;;;;;4963903;28;20400;-76
2021/08/19 10:23:43;;;;;;;1.70;1.60;;;20.80;99.90;;;;;;4946932;28;20397;-75
2021/08/19 10:26:10;;;;;;;1.73;1.63;;;20.80;99.90;;;;;;4961781;28;20474;-76
2021/08/19 10:28:48;;;;;;;3.33;1.70;;;20.90;99.90;;;;;;4994234;28;20405;-74
2021/08/19 10:31:33;;;;;;;2.17;1.60;;;20.90;99.90;;;;;;4959486;28;20420;-76
2021/08/19 10:33:58;;;;;;;1.80;1.70;;;20.90;99.90;;;;;;4966178;28;20410;-75
2021/08/19 10:36:24;;;;;;;2.03;1.80;;;21.00;99.90;;;;;;4935913;28;20398;-76
2021/08/19 10:38:50;;;;;;;1.50;1.40;;;21.00;99.90;;;;;;5003970;28;20917;-74
2021/08/19 10:41:53;;;;;;;1.57;1.47;;;20.90;99.90;;;;;;4977720;28;20504;-75
2021/08/19 10:44:27;;;;;;;1.60;1.50;;;21.00;99.90;;;;;;4959512;28;20400;-75
2021/08/19 10:46:54;;;;;;;2.08;1.88;;;21.00;99.90;;;;;;4964400;28;21904;-75
2021/08/19 10:49:31;;;;;;;1.75;1.65;;;21.00;99.90;;;;;;4960075;28;20396;-76
2021/08/19 10:52:09;;;;;;;1.55;1.45;;;21.00;99.90;;;;;;4997068;28;20427;-75
2021/08/19 10:54:40;;;;;;;1.58;1.48;;;21.00;99.90;;;;;;4985842;28;20402;-75
2021/08/19 10:57:24;;;;;;;2.07;1.80;;;21.10;99.90;;;;;;4992545;28;20401;-75
2021/08/19 10:59:57;;;;;;;3.10;1.90;;;21.00;99.90;;;;;;5000669;28;20401;-75
2021/08/19 11:02:54;;;;;;;1.85;1.75;;;21.00;99.90;;;;;;4959343;28;20993;-75
2021/08/19 11:05:25;;;;;;;2.00;1.60;;;20.90;99.90;;;;;;4978910;28;20395;-75
2021/08/19 11:08:01;;;;;;;1.63;1.52;;;20.80;99.90;;;;;;5002887;28;20419;-75
2021/08/19 11:10:39;;;;;;;1.92;1.65;;;20.90;99.90;;;;;;4981755;28;20392;-76
2021/08/19 11:13:07;;;;;;;1.50;1.40;;;20.90;99.90;;;;;;4996760;28;20482;-76
2021/08/19 11:15:36;;;;;;;1.20;1.20;;;21.00;99.90;;;;;;4984685;28;20893;-75
2021/08/19 11:18:01;;;;;;;1.70;1.60;;;21.10;99.90;;;;;;4969461;28;20400;-76
2021/08/19 11:20:29;;;;;;;5.10;1.57;;;21.20;99.90;;;;;;4992208;28;20385;-76
2021/08/19 11:23:09;;;;;;;1.65;1.35;;;21.30;99.90;;;;;;4969259;28;20393;-75
2021/08/19 11:25:38;;;;;;;1.33;1.30;;;21.40;99.90;;;;;;4986952;28;20479;-74
2021/08/19 11:28:17;;;;;;;1.48;1.40;;;21.50;99.90;;;;;;4997988;28;20769;-75
2021/08/19 11:30:50;;;;;;;1.60;1.50;;;21.60;99.90;;;;;;4963861;28;20401;-75
2021/08/19 11:33:17;;;;;;;1.80;1.60;;;21.70;99.90;;;;;;4959622;28;20409;-76
2021/08/19 11:35:44;;;;;;;1.70;1.60;;;21.70;99.90;;;;;;4978549;28;20481;-75
2021/08/19 11:38:14;;;;;;;1.50;1.40;;;21.70;99.90;;;;;;4971476;28;20420;-75
2021/08/19 11:40:41;;;;;;;1.92;1.77;;;21.90;99.90;;;;;;4962281;28;20390;-77
2021/08/19 11:43:29;;;;;;;2.60;1.90;;;21.80;99.90;;;;;;4960078;28;20397;-75
2021/08/19 11:46:05;;;;;;;1.58;1.48;;;21.80;99.90;;;;;;4964771;28;20396;-75
2021/08/19 11:48:31;;;;;;;1.63;1.53;;;21.90;99.90;;;;;;4956250;28;20407;-75
2021/08/19 11:50:58;;;;;;;2.63;1.95;;;21.90;99.90;;;;;;4981320;28;20397;-76
2021/08/19 11:53:24;;;;;;;2.22;1.70;;;22.10;99.90;;;;;;4980711;28;20474;-76
2021/08/19 11:55:50;;;;;;;1.80;1.70;;;22.20;99.90;;;;;;4968733;28;20407;-75
2021/08/19 11:58:16;;;;;;;1.55;1.45;;;22.40;99.90;;;;;;4963064;28;20393;-75
2021/08/19 12:01:05;;;;;;;1.83;1.73;;;22.50;99.90;;;;;;5005902;28;20416;-75
2021/08/19 12:03:31;;;;;;;1.60;1.50;;;22.60;99.90;;;;;;4998768;28;20814;-77
2021/08/19 12:06:01;;;;;;;2.30;2.00;;;22.80;99.90;;;;;;4968185;28;20757;-76
2021/08/19 12:08:27;;;;;;;2.08;1.90;;;22.80;99.90;;;;;;4980145;28;20445;-75
2021/08/19 12:10:56;;;;;;;1.58;1.48;;;23.20;99.90;;;;;;4962433;28;20909;-76
2021/08/19 12:13:22;;;;;;;2.83;1.50;;;23.50;99.90;;;;;;4976447;28;20411;-75
2021/08/19 12:15:48;;;;;;;1.70;1.60;;;23.60;99.90;;;;;;4963846;28;20393;-75
2021/08/19 12:18:14;;;;;;;3.40;1.70;;;23.60;99.90;;;;;;4961894;28;20392;-76
2021/08/19 12:20:39;;;;;;;1.60;1.50;;;23.40;99.90;;;;;;4959888;28;20897;-75
2021/08/19 12:23:21;;;;;;;1.60;1.50;;;23.50;99.90;;;;;;4961764;28;20405;-77
2021/08/19 12:25:47;;;;;;;1.75;1.63;;;23.80;99.90;;;;;;4999331;28;20409;-75
2021/08/19 12:28:13;;;;;;;1.42;1.33;;;24.10;99.90;;;;;;4963816;28;20396;-76
2021/08/19 12:30:59;;;;;;;1.25;1.23;;;24.30;99.90;;;;;;4963713;28;20400;-76
2021/08/19 12:33:37;;;;;;;1.60;1.50;;;24.40;99.90;;;;;;4967655;28;20428;-75
2021/08/19 12:36:19;;;;;;;1.60;1.50;;;24.30;99.90;;;;;;4977326;28;20405;-77
2021/08/19 12:38:48;;;;;;;1.90;1.70;;;24.10;99.90;;;;;;4960237;28;20413;-76
2021/08/19 12:41:18;;;;;;;1.52;1.42;;;23.90;99.90;;;;;;4975126;28;20991;-75
2021/08/19 12:43:44;;;;;;;1.50;1.40;;;23.60;99.90;;;;;;4989741;28;20403;-75
2021/08/19 12:46:11;;;;;;;2.17;1.70;;;23.50;99.90;;;;;;4969713;28;20434;-77
2021/08/19 12:48:37;;;;;;;2.40;1.67;;;23.40;99.90;;;;;;4972354;28;20400;-76
2021/08/19 12:51:26;;;;;;;1.20;1.20;;;23.30;99.90;;;;;;4959075;28;20401;-75